sensor_id;sensor_type;location;lat;lon;timestamp;pressure;altitude;pressure_sealevel;temperature;humidity
56825;BME280;42705;50.326;18.772;2023-03-04T00:00:54;98580.02;;;-1.26;77.04
56825;BME280;42705;50.326;18.772;2023-03-04T00:06:16;98574.56;;;-1.22;77.16
56825;BME280;42705;50.326;18.772;2023-03-04T00:11:38;98568.86;;;-1.21;77.29
56825;BME280;42705;50.326;18.772;2023-03-04T00:17:00;98563.32;;;-1.16;77.00
56825;BME280;42705;50.326;18.772;2023-03-04T00:22:24;98560.64;;;-1.13;77.10
56825;BME280;42705;50.326;18.772;2023-03-04T00:27:45;98550.41;;;-1.10;77.09
56825;BME280;42705;50.326;18.772;2023-03-04T00:33:07;98539.81;;;-1.11;77.16
56825;BME280;42705;50.326;18.772;2023-03-04T00:38:29;98539.01;;;-1.12;77.33
56825;BME280;42705;50.326;18.772;2023-03-04T00:43:51;98534.02;;;-1.16;77.65
56825;BME280;42705;50.326;18.772;2023-03-04T00:49:14;98530.52;;;-1.19;77.94
56825;BME280;42705;50.326;18.772;2023-03-04T00:54:36;98515.54;;;-1.21;77.94
56825;BME280;42705;50.326;18.772;2023-03-04T00:59:57;98508.25;;;-1.27;78.16
56825;BME280;42705;50.326;18.772;2023-03-04T01:05:19;98500.39;;;-1.32;78.26
56825;BME280;42705;50.326;18.772;2023-03-04T01:10:41;98484.61;;;-1.36;78.50
56825;BME280;42705;50.326;18.772;2023-03-04T01:16:03;98480.67;;;-1.40;78.96
56825;BME280;42705;50.326;18.772;2023-03-04T01:21:27;98477.19;;;-1.42;79.04
56825;BME280;42705;50.326;18.772;2023-03-04T01:26:51;98468.05;;;-1.45;79.03
56825;BME280;42705;50.326;18.772;2023-03-04T01:32:13;98460.13;;;-1.44;79.16
56825;BME280;42705;50.326;18.772;2023-03-04T01:37:37;98457.20;;;-1.44;79.29
56825;BME280;42705;50.326;18.772;2023-03-04T01:42:59;98437.86;;;-1.49;79.71
56825;BME280;42705;50.326;18.772;2023-03-04T01:48:26;98432.56;;;-1.53;79.41
56825;BME280;42705;50.326;18.772;2023-03-04T01:53:49;98419.55;;;-1.53;79.41
56825;BME280;42705;50.326;18.772;2023-03-04T02:04:35;98409.95;;;-1.53;79.58
56825;BME280;42705;50.326;18.772;2023-03-04T02:09:58;98411.56;;;-1.50;79.51
56825;BME280;42705;50.326;18.772;2023-03-04T02:15:21;98413.26;;;-1.50;79.77
56825;BME280;42705;50.326;18.772;2023-03-04T02:21:00;98407.06;;;-1.50;79.52
56825;BME280;42705;50.326;18.772;2023-03-04T02:26:26;98398.20;;;-1.47;79.62
56825;BME280;42705;50.326;18.772;2023-03-04T02:31:51;98386.88;;;-1.46;79.54
56825;BME280;42705;50.326;18.772;2023-03-04T02:37:15;98381.48;;;-1.40;79.57
56825;BME280;42705;50.326;18.772;2023-03-04T02:42:39;98377.05;;;-1.41;79.56
56825;BME280;42705;50.326;18.772;2023-03-04T02:48:01;98373.16;;;-1.42;79.53
56825;BME280;42705;50.326;18.772;2023-03-04T02:53:23;98361.25;;;-1.43;79.32
56825;BME280;42705;50.326;18.772;2023-03-04T02:58:46;98365.10;;;-1.46;79.30
56825;BME280;42705;50.326;18.772;2023-03-04T03:04:08;98360.14;;;-1.50;79.35
56825;BME280;42705;50.326;18.772;2023-03-04T03:09:30;98348.73;;;-1.51;79.14
56825;BME280;42705;50.326;18.772;2023-03-04T03:14:52;98351.55;;;-1.53;79.15
56825;BME280;42705;50.326;18.772;2023-03-04T03:20:15;98357.05;;;-1.54;79.15
56825;BME280;42705;50.326;18.772;2023-03-04T03:25:38;98356.09;;;-1.55;79.24
56825;BME280;42705;50.326;18.772;2023-03-04T03:31:01;98355.35;;;-1.50;79.13
56825;BME280;42705;50.326;18.772;2023-03-04T03:36:23;98363.64;;;-1.47;78.91
56825;BME280;42705;50.326;18.772;2023-03-04T03:41:45;98364.30;;;-1.47;79.04
56825;BME280;42705;50.326;18.772;2023-03-04T03:47:07;98355.40;;;-1.48;79.07
56825;BME280;42705;50.326;18.772;2023-03-04T03:52:29;98358.96;;;-1.50;79.10
56825;BME280;42705;50.326;18.772;2023-03-04T03:57:50;98349.25;;;-1.51;79.14
56825;BME280;42705;50.326;18.772;2023-03-04T04:03:16;98348.17;;;-1.55;79.14
56825;BME280;42705;50.326;18.772;2023-03-04T04:08:38;98345.09;;;-1.58;79.09
56825;BME280;42705;50.326;18.772;2023-03-04T04:14:00;98340.44;;;-1.62;79.09
56825;BME280;42705;50.326;18.772;2023-03-04T04:19:22;98340.23;;;-1.69;79.14
56825;BME280;42705;50.326;18.772;2023-03-04T04:24:44;98333.27;;;-1.74;79.09
56825;BME280;42705;50.326;18.772;2023-03-04T04:30:06;98333.02;;;-1.81;79.21
56825;BME280;42705;50.326;18.772;2023-03-04T04:35:29;98336.86;;;-1.79;79.26
56825;BME280;42705;50.326;18.772;2023-03-04T04:40:51;98332.55;;;-1.81;78.97
56825;BME280;42705;50.326;18.772;2023-03-04T04:46:13;98333.88;;;-1.85;79.18
56825;BME280;42705;50.326;18.772;2023-03-04T04:51:37;98336.46;;;-1.85;78.96
56825;BME280;42705;50.326;18.772;2023-03-04T04:56:59;98341.29;;;-1.86;78.99
56825;BME280;42705;50.326;18.772;2023-03-04T05:02:21;98340.27;;;-1.86;78.88
56825;BME280;42705;50.326;18.772;2023-03-04T05:07:43;98334.81;;;-1.87;79.13
56825;BME280;42705;50.326;18.772;2023-03-04T05:13:04;98331.45;;;-1.84;79.09
56825;BME280;42705;50.326;18.772;2023-03-04T05:18:26;98327.77;;;-1.78;79.08
56825;BME280;42705;50.326;18.772;2023-03-04T05:23:48;98323.32;;;-1.78;79.09
56825;BME280;42705;50.326;18.772;2023-03-04T05:29:10;98316.88;;;-1.76;79.10
56825;BME280;42705;50.326;18.772;2023-03-04T05:34:32;98309.77;;;-1.74;79.22
56825;BME280;42705;50.326;18.772;2023-03-04T05:39:54;98305.08;;;-1.68;79.26
56825;BME280;42705;50.326;18.772;2023-03-04T05:45:17;98312.03;;;-1.66;79.17
56825;BME280;42705;50.326;18.772;2023-03-04T05:50:39;98306.27;;;-1.63;78.92
56825;BME280;42705;50.326;18.772;2023-03-04T05:56:12;98301.24;;;-1.58;78.72
56825;BME280;42705;50.326;18.772;2023-03-04T06:01:35;98299.66;;;-1.57;78.77
56825;BME280;42705;50.326;18.772;2023-03-04T06:06:57;98295.50;;;-1.56;78.68
56825;BME280;42705;50.326;18.772;2023-03-04T06:12:19;98296.69;;;-1.56;78.59
56825;BME280;42705;50.326;18.772;2023-03-04T06:17:41;98300.52;;;-1.57;78.54
56825;BME280;42705;50.326;18.772;2023-03-04T06:23:04;98297.41;;;-1.57;78.24
56825;BME280;42705;50.326;18.772;2023-03-04T06:28:26;98296.48;;;-1.55;78.07
56825;BME280;42705;50.326;18.772;2023-03-04T06:33:48;98302.94;;;-1.54;77.92
56825;BME280;42705;50.326;18.772;2023-03-04T06:39:10;98307.76;;;-1.46;77.76
56825;BME280;42705;50.326;18.772;2023-03-04T06:44:32;98311.08;;;-1.44;77.60
56825;BME280;42705;50.326;18.772;2023-03-04T06:49:54;98317.93;;;-1.44;77.34
56825;BME280;42705;50.326;18.772;2023-03-04T06:55:16;98328.17;;;-1.36;77.37
56825;BME280;42705;50.326;18.772;2023-03-04T07:00:38;98328.98;;;-1.30;77.21
56825;BME280;42705;50.326;18.772;2023-03-04T07:06:00;98333.73;;;-1.26;76.96
56825;BME280;42705;50.326;18.772;2023-03-04T07:11:22;98331.98;;;-1.21;76.74
56825;BME280;42705;50.326;18.772;2023-03-04T07:16:45;98336.29;;;-1.18;76.61
56825;BME280;42705;50.326;18.772;2023-03-04T07:22:06;98337.83;;;-1.13;76.27
56825;BME280;42705;50.326;18.772;2023-03-04T07:27:28;98343.55;;;-1.07;76.16
56825;BME280;42705;50.326;18.772;2023-03-04T07:32:50;98348.13;;;-1.06;76.00
56825;BME280;42705;50.326;18.772;2023-03-04T07:38:12;98346.70;;;-1.01;75.46
56825;BME280;42705;50.326;18.772;2023-03-04T07:43:34;98344.95;;;-0.93;75.34
56825;BME280;42705;50.326;18.772;2023-03-04T07:48:56;98352.20;;;-0.90;74.91
56825;BME280;42705;50.326;18.772;2023-03-04T07:54:18;98357.79;;;-0.88;74.88
56825;BME280;42705;50.326;18.772;2023-03-04T07:59:40;98354.66;;;-0.81;74.26
56825;BME280;42705;50.326;18.772;2023-03-04T08:05:02;98355.66;;;-0.83;73.86
56825;BME280;42705;50.326;18.772;2023-03-04T08:10:25;98353.88;;;-0.89;73.51
56825;BME280;42705;50.326;18.772;2023-03-04T08:15:46;98355.33;;;-0.91;73.17
56825;BME280;42705;50.326;18.772;2023-03-04T08:21:11;98356.25;;;-0.89;73.15
56825;BME280;42705;50.326;18.772;2023-03-04T08:26:45;98344.94;;;-0.89;73.08
56825;BME280;42705;50.326;18.772;2023-03-04T08:32:07;98342.96;;;-0.91;72.83
56825;BME280;42705;50.326;18.772;2023-03-04T08:37:29;98343.54;;;-0.84;72.83
56825;BME280;42705;50.326;18.772;2023-03-04T08:42:51;98347.96;;;-0.83;72.69
56825;BME280;42705;50.326;18.772;2023-03-04T08:48:14;98352.64;;;-0.85;72.69
56825;BME280;42705;50.326;18.772;2023-03-04T08:53:37;98346.45;;;-0.81;72.53
56825;BME280;42705;50.326;18.772;2023-03-04T08:58:59;98344.51;;;-0.76;72.76
56825;BME280;42705;50.326;18.772;2023-03-04T09:04:21;98337.10;;;-0.75;72.59
56825;BME280;42705;50.326;18.772;2023-03-04T09:09:43;98340.41;;;-0.76;72.22
56825;BME280;42705;50.326;18.772;2023-03-04T09:15:06;98344.74;;;-0.73;72.39
56825;BME280;42705;50.326;18.772;2023-03-04T09:20:30;98335.05;;;-0.75;72.26
56825;BME280;42705;50.326;18.772;2023-03-04T09:25:52;98333.55;;;-0.76;72.12
56825;BME280;42705;50.326;18.772;2023-03-04T09:31:14;98329.45;;;-0.73;72.34
56825;BME280;42705;50.326;18.772;2023-03-04T09:36:35;98327.90;;;-0.65;72.32
56825;BME280;42705;50.326;18.772;2023-03-04T09:41:57;98327.09;;;-0.63;72.10
56825;BME280;42705;50.326;18.772;2023-03-04T09:47:21;98323.91;;;-0.61;72.04
56825;BME280;42705;50.326;18.772;2023-03-04T09:53:03;98322.73;;;-0.54;72.21
56825;BME280;42705;50.326;18.772;2023-03-04T09:58:43;98322.74;;;-0.47;71.98
56825;BME280;42705;50.326;18.772;2023-03-04T10:10:21;98312.19;;;-0.44;72.13
56825;BME280;42705;50.326;18.772;2023-03-04T10:15:48;98312.70;;;-0.48;72.13
56825;BME280;42705;50.326;18.772;2023-03-04T10:21:44;98305.27;;;-0.51;72.19
56825;BME280;42705;50.326;18.772;2023-03-04T10:27:09;98294.63;;;-0.54;72.62
56825;BME280;42705;50.326;18.772;2023-03-04T10:32:32;98296.55;;;-0.54;72.45
56825;BME280;42705;50.326;18.772;2023-03-04T10:38:01;98293.35;;;-0.52;72.81
56825;BME280;42705;50.326;18.772;2023-03-04T10:43:24;98288.63;;;-0.47;72.85
56825;BME280;42705;50.326;18.772;2023-03-04T10:48:46;98275.42;;;-0.47;72.76
56825;BME280;42705;50.326;18.772;2023-03-04T11:16:01;98251.83;;;-0.21;73.04
56825;BME280;42705;50.326;18.772;2023-03-04T11:21:27;98245.67;;;-0.11;73.24
56825;BME280;42705;50.326;18.772;2023-03-04T11:26:58;98245.27;;;-0.04;72.99
56825;BME280;42705;50.326;18.772;2023-03-04T11:32:37;98237.85;;;0.04;72.74
56825;BME280;42705;50.326;18.772;2023-03-04T11:38:09;98228.61;;;0.20;72.74
56825;BME280;42705;50.326;18.772;2023-03-04T11:43:38;98225.52;;;0.30;72.29
56825;BME280;42705;50.326;18.772;2023-03-04T12:11:37;98193.42;;;0.62;71.40
56825;BME280;42705;50.326;18.772;2023-03-04T12:17:23;98191.49;;;0.69;71.32
56825;BME280;42705;50.326;18.772;2023-03-04T12:23:07;98189.19;;;0.80;71.08
56825;BME280;42705;50.326;18.772;2023-03-04T12:28:52;98181.88;;;0.88;70.80
56825;BME280;42705;50.326;18.772;2023-03-04T12:57:22;98160.58;;;1.45;70.26
56825;BME280;42705;50.326;18.772;2023-03-04T13:14:05;98148.83;;;1.58;70.27
56825;BME280;42705;50.326;18.772;2023-03-04T13:31:13;98137.75;;;1.74;69.94
56825;BME280;42705;50.326;18.772;2023-03-04T13:36:54;98128.66;;;1.76;69.52
56825;BME280;42705;50.326;18.772;2023-03-04T13:42:41;98136.11;;;1.75;69.23
56825;BME280;42705;50.326;18.772;2023-03-04T13:48:25;98131.72;;;1.79;69.44
56825;BME280;42705;50.326;18.772;2023-03-04T14:04:40;98126.49;;;1.86;69.32
56825;BME280;42705;50.326;18.772;2023-03-04T14:10:04;98135.16;;;1.94;69.24
56825;BME280;42705;50.326;18.772;2023-03-04T14:15:29;98136.73;;;1.99;68.96
56825;BME280;42705;50.326;18.772;2023-03-04T14:20:52;98130.36;;;2.02;68.84
56825;BME280;42705;50.326;18.772;2023-03-04T14:26:19;98128.36;;;2.07;68.55
56825;BME280;42705;50.326;18.772;2023-03-04T14:31:41;98122.40;;;2.11;68.73
56825;BME280;42705;50.326;18.772;2023-03-04T14:37:22;98122.50;;;2.13;68.14
56825;BME280;42705;50.326;18.772;2023-03-04T14:42:45;98122.65;;;2.10;68.04
56825;BME280;42705;50.326;18.772;2023-03-04T14:48:08;98115.21;;;2.10;68.16
56825;BME280;42705;50.326;18.772;2023-03-04T14:53:52;98118.89;;;2.12;68.13
56825;BME280;42705;50.326;18.772;2023-03-04T14:59:15;98110.60;;;2.10;67.82
56825;BME280;42705;50.326;18.772;2023-03-04T15:04:39;98113.86;;;2.07;67.56
56825;BME280;42705;50.326;18.772;2023-03-04T15:10:05;98109.23;;;2.07;67.61
56825;BME280;42705;50.326;18.772;2023-03-04T15:15:43;98099.98;;;2.12;67.62
56825;BME280;42705;50.326;18.772;2023-03-04T15:21:29;98093.15;;;2.13;67.46
56825;BME280;42705;50.326;18.772;2023-03-04T15:26:53;98093.52;;;2.10;67.30
56825;BME280;42705;50.326;18.772;2023-03-04T15:32:15;98093.53;;;2.10;67.43
56825;BME280;42705;50.326;18.772;2023-03-04T15:37:37;98085.82;;;2.04;67.24
56825;BME280;42705;50.326;18.772;2023-03-04T15:43:02;98087.66;;;1.87;66.64
56825;BME280;42705;50.326;18.772;2023-03-04T15:48:24;98086.89;;;1.75;66.78
56825;BME280;42705;50.326;18.772;2023-03-04T15:53:49;98093.00;;;1.70;67.38
56825;BME280;42705;50.326;18.772;2023-03-04T15:59:13;98089.21;;;1.67;67.31
56825;BME280;42705;50.326;18.772;2023-03-04T16:04:36;98087.33;;;1.61;67.01
56825;BME280;42705;50.326;18.772;2023-03-04T16:10:03;98093.13;;;1.56;67.12
56825;BME280;42705;50.326;18.772;2023-03-04T16:15:28;98087.11;;;1.59;67.46
56825;BME280;42705;50.326;18.772;2023-03-04T16:20:50;98090.19;;;1.60;67.55
56825;BME280;42705;50.326;18.772;2023-03-04T16:26:21;98091.88;;;1.57;67.25
56825;BME280;42705;50.326;18.772;2023-03-04T16:31:43;98093.26;;;1.54;67.36
56825;BME280;42705;50.326;18.772;2023-03-04T16:37:11;98089.73;;;1.53;67.68
56825;BME280;42705;50.326;18.772;2023-03-04T16:42:34;98087.63;;;1.51;67.59
56825;BME280;42705;50.326;18.772;2023-03-04T16:47:56;98085.02;;;1.48;67.66
56825;BME280;42705;50.326;18.772;2023-03-04T16:53:33;98088.64;;;1.51;68.02
56825;BME280;42705;50.326;18.772;2023-03-04T16:58:56;98090.68;;;1.51;67.92
56825;BME280;42705;50.326;18.772;2023-03-04T17:04:18;98090.35;;;1.51;68.26
56825;BME280;42705;50.326;18.772;2023-03-04T17:09:40;98091.43;;;1.56;68.39
56825;BME280;42705;50.326;18.772;2023-03-04T17:15:03;98093.94;;;1.60;68.53
56825;BME280;42705;50.326;18.772;2023-03-04T17:20:25;98094.83;;;1.60;68.21
56825;BME280;42705;50.326;18.772;2023-03-04T17:25:54;98101.60;;;1.64;68.47
56825;BME280;42705;50.326;18.772;2023-03-04T17:31:18;98102.00;;;1.72;68.33
56825;BME280;42705;50.326;18.772;2023-03-04T17:36:41;98107.38;;;1.78;68.48
56825;BME280;42705;50.326;18.772;2023-03-04T17:42:04;98115.73;;;1.84;68.73
56825;BME280;42705;50.326;18.772;2023-03-04T17:47:26;98111.28;;;1.96;68.88
56825;BME280;42705;50.326;18.772;2023-03-04T17:52:49;98113.55;;;2.03;68.97
56825;BME280;42705;50.326;18.772;2023-03-04T17:58:11;98106.91;;;2.05;68.76
56825;BME280;42705;50.326;18.772;2023-03-04T18:03:33;98115.30;;;2.06;69.31
56825;BME280;42705;50.326;18.772;2023-03-04T18:08:56;98114.30;;;2.11;68.88
56825;BME280;42705;50.326;18.772;2023-03-04T18:14:18;98113.70;;;2.13;69.29
56825;BME280;42705;50.326;18.772;2023-03-04T18:19:40;98114.02;;;2.11;69.16
56825;BME280;42705;50.326;18.772;2023-03-04T18:25:02;98115.73;;;2.13;69.41
56825;BME280;42705;50.326;18.772;2023-03-04T18:30:24;98108.39;;;2.15;69.36
56825;BME280;42705;50.326;18.772;2023-03-04T18:35:48;98111.92;;;2.10;69.62
56825;BME280;42705;50.326;18.772;2023-03-04T18:41:13;98114.39;;;2.07;69.53
56825;BME280;42705;50.326;18.772;2023-03-04T18:46:55;98117.85;;;2.07;69.71
56825;BME280;42705;50.326;18.772;2023-03-04T18:52:17;98118.69;;;2.04;69.54
56825;BME280;42705;50.326;18.772;2023-03-04T18:57:41;98117.95;;;2.02;69.76
56825;BME280;42705;50.326;18.772;2023-03-04T19:03:07;98119.48;;;2.06;70.04
56825;BME280;42705;50.326;18.772;2023-03-04T19:08:32;98123.50;;;2.04;70.20
56825;BME280;42705;50.326;18.772;2023-03-04T19:13:54;98123.60;;;2.00;70.16
56825;BME280;42705;50.326;18.772;2023-03-04T19:19:16;98126.98;;;2.01;70.20
56825;BME280;42705;50.326;18.772;2023-03-04T19:24:39;98127.09;;;2.05;70.19
56825;BME280;42705;50.326;18.772;2023-03-04T19:30:01;98123.96;;;2.02;70.50
56825;BME280;42705;50.326;18.772;2023-03-04T19:35:24;98126.14;;;1.98;70.56
56825;BME280;42705;50.326;18.772;2023-03-04T19:40:46;98129.42;;;2.00;70.76
56825;BME280;42705;50.326;18.772;2023-03-04T19:46:09;98121.66;;;2.00;70.96
56825;BME280;42705;50.326;18.772;2023-03-04T19:51:32;98124.61;;;1.97;70.91
56825;BME280;42705;50.326;18.772;2023-03-04T19:56:55;98128.79;;;1.99;71.29
56825;BME280;42705;50.326;18.772;2023-03-04T20:02:18;98127.08;;;2.02;71.39
56825;BME280;42705;50.326;18.772;2023-03-04T20:07:40;98130.95;;;2.01;71.13
56825;BME280;42705;50.326;18.772;2023-03-04T20:13:09;98129.77;;;2.00;71.20
56825;BME280;42705;50.326;18.772;2023-03-04T20:18:32;98128.32;;;1.99;71.30
56825;BME280;42705;50.326;18.772;2023-03-04T20:23:54;98130.30;;;1.92;71.61
56825;BME280;42705;50.326;18.772;2023-03-04T20:29:17;98126.73;;;1.85;71.35
56825;BME280;42705;50.326;18.772;2023-03-04T20:34:39;98126.88;;;1.79;71.63
56825;BME280;42705;50.326;18.772;2023-03-04T20:40:02;98121.88;;;1.71;71.69
56825;BME280;42705;50.326;18.772;2023-03-04T20:45:25;98126.98;;;1.67;71.87
56825;BME280;42705;50.326;18.772;2023-03-04T20:50:47;98125.27;;;1.69;72.20
56825;BME280;42705;50.326;18.772;2023-03-04T20:56:09;98128.05;;;1.68;72.14
56825;BME280;42705;50.326;18.772;2023-03-04T21:01:31;98126.63;;;1.72;72.22
56825;BME280;42705;50.326;18.772;2023-03-04T21:06:53;98128.63;;;1.77;72.24
56825;BME280;42705;50.326;18.772;2023-03-04T21:12:16;98124.71;;;1.76;72.40
56825;BME280;42705;50.326;18.772;2023-03-04T21:17:38;98128.06;;;1.80;72.81
56825;BME280;42705;50.326;18.772;2023-03-04T21:23:00;98138.84;;;1.81;72.72
56825;BME280;42705;50.326;18.772;2023-03-04T21:28:22;98149.06;;;1.69;72.09
56825;BME280;42705;50.326;18.772;2023-03-04T21:33:45;98153.29;;;1.55;71.76
56825;BME280;42705;50.326;18.772;2023-03-04T21:39:13;98146.30;;;1.39;71.09
56825;BME280;42705;50.326;18.772;2023-03-04T21:44:35;98135.69;;;1.29;71.40
56825;BME280;42705;50.326;18.772;2023-03-04T21:49:59;98132.02;;;1.21;71.41
56825;BME280;42705;50.326;18.772;2023-03-04T21:55:23;98130.64;;;1.18;71.17
56825;BME280;42705;50.326;18.772;2023-03-04T22:00:45;98129.20;;;1.19;70.96
56825;BME280;42705;50.326;18.772;2023-03-04T22:06:09;98132.30;;;1.19;70.89
56825;BME280;42705;50.326;18.772;2023-03-04T22:11:32;98130.11;;;1.12;71.21
56825;BME280;42705;50.326;18.772;2023-03-04T22:16:57;98130.83;;;1.03;70.93
56825;BME280;42705;50.326;18.772;2023-03-04T22:22:19;98127.63;;;0.98;70.90
56825;BME280;42705;50.326;18.772;2023-03-04T22:27:44;98130.71;;;0.98;71.57
56825;BME280;42705;50.326;18.772;2023-03-04T22:33:06;98133.91;;;0.94;71.23
56825;BME280;42705;50.326;18.772;2023-03-04T22:38:30;98136.91;;;0.89;71.45
56825;BME280;42705;50.326;18.772;2023-03-04T22:43:52;98136.63;;;0.94;71.70
56825;BME280;42705;50.326;18.772;2023-03-04T22:49:14;98138.45;;;0.96;71.79
56825;BME280;42705;50.326;18.772;2023-03-04T22:54:36;98144.20;;;0.91;71.66
56825;BME280;42705;50.326;18.772;2023-03-04T22:59:58;98141.13;;;0.94;72.22
56825;BME280;42705;50.326;18.772;2023-03-04T23:05:20;98140.82;;;0.99;72.44
56825;BME280;42705;50.326;18.772;2023-03-04T23:10:42;98144.31;;;0.98;72.16
56825;BME280;42705;50.326;18.772;2023-03-04T23:16:06;98145.79;;;0.97;72.18
56825;BME280;42705;50.326;18.772;2023-03-04T23:21:28;98146.06;;;1.01;72.10
56825;BME280;42705;50.326;18.772;2023-03-04T23:26:54;98148.95;;;1.01;72.35
56825;BME280;42705;50.326;18.772;2023-03-04T23:32:16;98152.85;;;1.03;72.47
56825;BME280;42705;50.326;18.772;2023-03-04T23:37:37;98159.10;;;1.14;72.58
56825;BME280;42705;50.326;18.772;2023-03-04T23:42:59;98156.89;;;1.25;72.92
56825;BME280;42705;50.326;18.772;2023-03-04T23:48:21;98154.41;;;1.33;72.71
56825;BME280;42705;50.326;18.772;2023-03-04T23:53:44;98153.02;;;1.27;72.65
56825;BME280;42705;50.326;18.772;2023-03-04T23:59:06;98158.13;;;1.28;72.85
